Time;durP1;ratioP1;P1;durP2;ratioP2;P2;SDS_P1;SDS_P2;PMS_P1;PMS_P2;Temp;Humidity;BMP_temperature;BMP_pressure;BME280_temperature;BME280_humidity;BME280_pressure;Samples;Min_cycle;Max_cycle;Signal;HPM_P1;HPM_P2
2021/08/05 00:00:26;;;;;;;4.82;4.43;;;14.70;99.90;;;;;;5074245;28;20480;-90
2021/08/05 00:02:52;;;;;;;5.22;4.50;;;14.70;99.90;;;;;;5074414;28;20510;-91
2021/08/05 00:05:19;;;;;;;4.90;4.57;;;14.70;99.90;;;;;;5073441;28;20052;-91
2021/08/05 00:07:46;;;;;;;6.00;4.72;;;14.70;99.90;;;;;;5074375;28;20178;-91
2021/08/05 00:10:13;;;;;;;4.93;4.47;;;14.70;99.90;;;;;;5073750;28;20060;-90
2021/08/05 00:12:40;;;;;;;7.35;4.82;;;14.70;99.90;;;;;;5074050;28;20071;-92
2021/08/05 00:15:07;;;;;;;5.20;4.70;;;14.70;99.90;;;;;;5074082;28;20143;-91
2021/08/05 00:17:34;;;;;;;4.57;4.28;;;14.70;99.90;;;;;;5074165;28;20476;-91
2021/08/05 00:20:02;;;;;;;4.85;4.45;;;14.70;99.90;;;;;;5073341;28;20052;-91
2021/08/05 00:22:29;;;;;;;4.68;4.28;;;14.70;99.90;;;;;;5074046;28;20139;-90
2021/08/05 00:24:55;;;;;;;4.43;4.05;;;14.70;99.90;;;;;;5073667;28;20054;-91
2021/08/05 00:27:22;;;;;;;5.93;4.78;;;14.70;99.90;;;;;;5073803;28;20059;-90
2021/08/05 00:29:49;;;;;;;5.00;4.60;;;14.70;99.90;;;;;;5073898;28;20070;-91
2021/08/05 00:32:15;;;;;;;6.80;4.72;;;14.60;99.90;;;;;;5085427;28;20040;-91
2021/08/05 00:34:42;;;;;;;4.65;4.35;;;14.50;99.90;;;;;;5075943;28;20080;-91
2021/08/05 00:37:09;;;;;;;6.53;4.82;;;14.60;99.90;;;;;;5073472;28;20455;-91
2021/08/05 00:39:36;;;;;;;6.05;4.65;;;14.60;99.90;;;;;;5073527;28;20057;-92
2021/08/05 00:42:03;;;;;;;4.90;4.50;;;14.60;99.90;;;;;;5073215;28;20071;-92
2021/08/05 00:44:30;;;;;;;5.10;4.72;;;14.60;99.90;;;;;;5073595;28;20058;-92
2021/08/05 00:46:57;;;;;;;5.68;5.18;;;14.60;99.90;;;;;;5073207;28;20094;-92
2021/08/05 00:49:24;;;;;;;5.88;5.18;;;14.60;99.90;;;;;;5073203;28;20143;-92
2021/08/05 00:51:51;;;;;;;5.85;4.93;;;14.50;99.90;;;;;;5073181;28;20070;-92
2021/08/05 00:54:17;;;;;;;6.68;5.47;;;14.50;99.90;;;;;;5073113;28;20048;-92
2021/08/05 00:56:44;;;;;;;6.15;5.55;;;14.50;99.90;;;;;;5073413;28;20084;-92
2021/08/05 00:59:11;;;;;;;8.63;5.80;;;14.40;99.90;;;;;;5073399;28;20132;-92
2021/08/05 01:01:45;;;;;;;5.68;5.20;;;14.40;99.90;;;;;;5073621;28;20429;-92
2021/08/05 01:04:14;;;;;;;8.45;6.03;;;14.40;99.90;;;;;;5073166;28;20443;-91
2021/08/05 01:07:03;;;;;;;7.75;5.25;;;14.30;99.90;;;;;;5073301;28;20048;-92
2021/08/05 01:09:51;;;;;;;6.65;5.65;;;14.40;99.90;;;;;;5073255;28;20599;-92
2021/08/05 01:12:44;;;;;;;6.30;5.70;;;14.40;99.90;;;;;;5073649;28;20397;-91
2021/08/05 01:15:14;;;;;;;7.75;5.95;;;14.40;99.90;;;;;;5073591;28;20136;-92
2021/08/05 01:17:47;;;;;;;6.68;6.05;;;14.40;99.90;;;;;;5077673;28;20075;-92
2021/08/05 01:20:17;;;;;;;6.03;5.50;;;14.40;99.90;;;;;;5072457;28;20062;-92
2021/08/05 01:23:06;;;;;;;7.45;5.88;;;14.40;99.90;;;;;;5073300;28;20305;-92
2021/08/05 01:25:51;;;;;;;6.47;5.90;;;14.40;99.90;;;;;;5073058;28;20527;-92
2021/08/05 01:28:18;;;;;;;6.45;5.75;;;14.40;99.90;;;;;;5072793;28;20052;-93
2021/08/05 01:30:47;;;;;;;6.60;5.50;;;14.30;99.90;;;;;;5072534;28;20055;-92
2021/08/05 01:33:18;;;;;;;6.97;6.28;;;14.30;99.90;;;;;;5073168;28;20045;-92
2021/08/05 01:35:47;;;;;;;8.60;6.93;;;14.30;99.90;;;;;;5072819;28;20131;-92
2021/08/05 01:38:15;;;;;;;6.28;5.78;;;14.30;99.90;;;;;;5072857;28;20507;-92
2021/08/05 01:40:43;;;;;;;6.00;5.50;;;14.30;99.90;;;;;;5072794;28;20131;-92
2021/08/05 01:43:11;;;;;;;6.07;5.57;;;14.30;99.90;;;;;;5072911;28;20495;-91
2021/08/05 01:45:40;;;;;;;5.80;5.30;;;14.40;99.90;;;;;;5073028;28;20564;-92
2021/08/05 01:48:10;;;;;;;7.05;6.35;;;14.30;99.90;;;;;;5073666;28;20060;-92
2021/08/05 01:50:37;;;;;;;8.30;6.20;;;14.30;99.90;;;;;;5079220;28;20131;-91
2021/08/05 01:53:05;;;;;;;8.90;6.20;;;14.20;99.90;;;;;;5079313;28;20111;-91
2021/08/05 01:55:32;;;;;;;6.40;5.85;;;14.10;99.90;;;;;;5072716;28;20143;-92
2021/08/05 01:57:59;;;;;;;5.97;5.47;;;14.20;99.90;;;;;;5072363;28;20055;-91
2021/08/05 02:00:26;;;;;;;7.28;6.30;;;14.20;99.90;;;;;;5072274;28;20058;-92
2021/08/05 02:02:56;;;;;;;7.25;6.15;;;14.10;99.90;;;;;;5072253;28;20044;-91
2021/08/05 02:05:32;;;;;;;7.20;5.78;;;14.20;99.90;;;;;;5072118;28;20061;-91
2021/08/05 02:08:05;;;;;;;6.88;5.90;;;14.20;99.90;;;;;;5072323;28;20151;-91
2021/08/05 02:10:40;;;;;;;7.20;6.53;;;14.20;99.90;;;;;;5071972;28;20147;-92
2021/08/05 02:13:17;;;;;;;9.45;6.13;;;14.30;99.90;;;;;;5071886;28;20148;-91
2021/08/05 02:16:06;;;;;;;7.38;6.53;;;14.30;99.90;;;;;;5072601;28;20135;-91
2021/08/05 02:18:34;;;;;;;5.78;5.38;;;14.30;99.90;;;;;;5071976;28;20054;-91
2021/08/05 02:21:03;;;;;;;5.65;5.15;;;14.30;99.90;;;;;;5072187;28;20174;-91
2021/08/05 02:23:31;;;;;;;6.30;5.70;;;14.30;99.90;;;;;;5071897;28;20068;-91
2021/08/05 02:25:59;;;;;;;6.20;5.63;;;14.30;99.90;;;;;;5072025;28;20106;-91
2021/08/05 02:28:28;;;;;;;6.05;5.55;;;14.30;99.90;;;;;;5074137;28;20051;-90
2021/08/05 02:30:56;;;;;;;6.80;6.03;;;14.30;99.90;;;;;;5075624;28;20492;-92
2021/08/05 02:33:26;;;;;;;6.20;5.63;;;14.20;99.90;;;;;;5075846;28;20075;-90
2021/08/05 02:35:54;;;;;;;6.97;6.10;;;14.10;99.90;;;;;;5075987;28;20098;-91
2021/08/05 02:38:21;;;;;;;6.10;5.50;;;14.10;99.90;;;;;;5075898;28;20055;-91
2021/08/05 02:40:50;;;;;;;6.25;5.68;;;14.10;99.90;;;;;;5076015;28;20055;-91
2021/08/05 02:43:18;;;;;;;6.35;5.85;;;14.00;99.90;;;;;;5075815;28;20140;-92
2021/08/05 02:45:48;;;;;;;7.75;5.60;;;14.00;99.90;;;;;;5075441;28;20135;-91
2021/08/05 02:48:15;;;;;;;9.30;5.53;;;13.90;99.90;;;;;;5075447;28;20063;-91
2021/08/05 02:50:42;;;;;;;7.22;6.15;;;13.80;99.90;;;;;;5075074;28;20056;-92
2021/08/05 02:53:10;;;;;;;6.82;6.15;;;13.70;99.90;;;;;;5074992;28;20062;-91
2021/08/05 02:55:38;;;;;;;6.53;5.65;;;13.70;99.90;;;;;;5075206;28;20054;-92
2021/08/05 02:58:06;;;;;;;7.40;5.90;;;13.70;99.90;;;;;;5075065;28;20515;-91
2021/08/05 03:00:32;;;;;;;9.27;7.43;;;13.70;99.90;;;;;;5075307;28;20106;-91
2021/08/05 03:03:00;;;;;;;9.80;6.43;;;13.70;99.90;;;;;;5075417;28;20071;-91
2021/08/05 03:05:27;;;;;;;8.00;6.15;;;13.70;99.90;;;;;;5075130;28;20044;-91
2021/08/05 03:07:53;;;;;;;9.00;6.55;;;13.60;99.90;;;;;;5076252;28;20045;-90
2021/08/05 03:10:20;;;;;;;7.20;6.50;;;13.70;99.90;;;;;;5081938;28;20135;-91
2021/08/05 03:12:47;;;;;;;9.77;7.63;;;13.60;99.90;;;;;;5085277;28;20055;-91
2021/08/05 03:15:15;;;;;;;7.88;7.05;;;13.70;99.90;;;;;;5075196;28;20049;-90
2021/08/05 03:17:42;;;;;;;7.53;6.88;;;13.70;99.90;;;;;;5074407;28;20052;-91
2021/08/05 03:20:15;;;;;;;11.38;8.15;;;13.80;99.90;;;;;;5075706;28;20060;-92
2021/08/05 03:22:43;;;;;;;12.67;7.87;;;13.80;99.90;;;;;;5075402;28;20052;-91
2021/08/05 03:25:11;;;;;;;7.20;6.60;;;13.80;99.90;;;;;;5074792;28;20094;-91
2021/08/05 03:27:39;;;;;;;8.88;8.05;;;13.80;99.90;;;;;;5075088;28;20052;-91
2021/08/05 03:30:07;;;;;;;8.23;7.05;;;13.80;99.90;;;;;;5074995;28;20076;-91
2021/08/05 03:32:34;;;;;;;9.20;7.85;;;13.70;99.90;;;;;;5074953;28;20048;-91
2021/08/05 03:35:01;;;;;;;6.85;6.25;;;13.80;99.90;;;;;;5074788;28;20056;-90
2021/08/05 03:37:27;;;;;;;6.63;6.13;;;13.80;99.90;;;;;;5075170;28;20041;-91
2021/08/05 03:39:54;;;;;;;8.32;7.30;;;13.70;99.90;;;;;;5073389;28;20048;-90
2021/08/05 03:42:21;;;;;;;8.02;6.78;;;13.70;99.90;;;;;;5075541;28;20045;-91
2021/08/05 03:44:50;;;;;;;7.22;6.45;;;13.70;99.90;;;;;;5074505;28;20048;-91
2021/08/05 03:47:17;;;;;;;9.77;7.88;;;13.70;99.90;;;;;;5074873;28;20060;-91
2021/08/05 03:49:43;;;;;;;8.05;7.25;;;13.80;99.90;;;;;;5074397;28;20045;-91
2021/08/05 03:52:10;;;;;;;7.95;7.25;;;13.80;99.90;;;;;;5074597;28;20400;-90
2021/08/05 03:54:47;;;;;;;8.23;6.95;;;13.80;99.90;;;;;;5074533;28;20060;-90
2021/08/05 03:57:14;;;;;;;9.98;7.30;;;13.80;99.90;;;;;;5074345;28;20488;-90
2021/08/05 03:59:41;;;;;;;8.70;6.88;;;13.80;99.90;;;;;;5074710;28;20044;-90
2021/08/05 04:02:07;;;;;;;7.50;6.90;;;13.80;99.90;;;;;;5074494;28;20400;-91
2021/08/05 04:04:34;;;;;;;8.38;6.75;;;13.70;99.90;;;;;;5074242;28;20071;-92
2021/08/05 04:07:01;;;;;;;8.05;7.03;;;13.80;99.90;;;;;;5074142;28;20390;-91
2021/08/05 04:09:28;;;;;;;8.88;7.13;;;13.80;99.90;;;;;;5075036;28;20135;-91
2021/08/05 04:11:54;;;;;;;10.00;6.93;;;13.80;99.90;;;;;;5076846;28;20140;-91
2021/08/05 04:14:21;;;;;;;7.00;6.40;;;13.90;99.90;;;;;;5076152;28;20044;-91
2021/08/05 04:16:48;;;;;;;7.50;6.80;;;13.90;99.90;;;;;;5076181;28;20131;-90
2021/08/05 04:19:15;;;;;;;6.95;6.32;;;13.90;99.90;;;;;;5074005;28;20049;-91
2021/08/05 04:21:42;;;;;;;7.53;6.85;;;13.90;99.90;;;;;;5073807;28;20052;-91
2021/08/05 04:24:08;;;;;;;6.95;6.35;;;13.90;99.90;;;;;;5074006;28;20132;-90
2021/08/05 04:26:35;;;;;;;10.20;7.90;;;13.90;99.90;;;;;;5073808;28;20428;-90
2021/08/05 04:29:02;;;;;;;8.27;6.32;;;14.00;99.90;;;;;;5074440;28;20071;-90
2021/08/05 04:31:29;;;;;;;6.38;5.80;;;14.00;99.90;;;;;;5089689;28;20101;-91
2021/08/05 04:33:56;;;;;;;7.78;5.95;;;14.00;99.90;;;;;;5073775;28;20068;-91
2021/08/05 04:36:22;;;;;;;7.75;6.13;;;13.90;99.90;;;;;;5073665;28;20519;-91
2021/08/05 04:38:49;;;;;;;7.95;7.00;;;14.00;99.90;;;;;;5073781;28;20098;-91
2021/08/05 04:41:16;;;;;;;7.13;6.45;;;14.00;99.90;;;;;;5073453;28;20139;-90
2021/08/05 04:43:43;;;;;;;5.88;5.35;;;14.00;99.90;;;;;;5073964;28;20097;-90
2021/08/05 04:46:10;;;;;;;10.00;6.63;;;14.10;99.90;;;;;;5073342;28;20075;-91
2021/08/05 04:48:37;;;;;;;7.35;6.60;;;14.10;99.90;;;;;;5073561;28;20040;-90
2021/08/05 04:51:03;;;;;;;7.38;6.00;;;14.10;99.90;;;;;;5073172;28;20052;-90
2021/08/05 04:53:30;;;;;;;6.82;6.20;;;14.10;99.90;;;;;;5073704;28;20065;-90
2021/08/05 04:55:57;;;;;;;6.07;5.57;;;14.10;99.90;;;;;;5073369;28;20063;-89
2021/08/05 04:58:23;;;;;;;6.45;5.78;;;14.20;99.90;;;;;;5073168;28;20057;-90
2021/08/05 05:00:50;;;;;;;6.38;5.70;;;14.30;99.90;;;;;;5073292;28;20059;-91
2021/08/05 05:03:17;;;;;;;5.20;4.90;;;14.30;99.90;;;;;;5073026;28;20067;-91
2021/08/05 05:05:44;;;;;;;8.15;5.32;;;14.50;99.90;;;;;;5072962;28;20048;-91
2021/08/05 05:08:22;;;;;;;5.22;4.85;;;14.60;99.90;;;;;;5073105;28;20049;-90
2021/08/05 05:10:54;;;;;;;6.70;4.88;;;14.70;99.90;;;;;;5072777;28;20071;-90
2021/08/05 05:13:20;;;;;;;5.47;4.97;;;14.70;99.90;;;;;;5073058;28;20131;-89
2021/08/05 05:15:47;;;;;;;5.30;5.00;;;14.80;99.90;;;;;;5072692;28;20056;-90
2021/08/05 05:18:16;;;;;;;8.50;5.30;;;14.80;99.90;;;;;;5072777;28;20484;-90
2021/08/05 05:20:43;;;;;;;5.38;4.88;;;14.80;99.90;;;;;;5072877;28;20440;-90
2021/08/05 05:23:10;;;;;;;6.35;5.05;;;14.90;99.90;;;;;;5072806;28;20098;-90
2021/08/05 05:25:38;;;;;;;7.30;4.65;;;14.90;99.90;;;;;;5072744;28;20048;-90
2021/08/05 05:28:06;;;;;;;5.78;5.30;;;15.00;99.90;;;;;;5072376;28;20084;-89
2021/08/05 05:30:34;;;;;;;4.95;4.55;;;15.00;99.90;;;;;;5072669;28;20115;-91
2021/08/05 05:33:02;;;;;;;8.05;6.30;;;15.00;99.90;;;;;;5072485;28;20404;-91
2021/08/05 05:35:28;;;;;;;7.38;6.10;;;15.00;99.90;;;;;;5072655;28;20094;-91
2021/08/05 05:37:57;;;;;;;8.70;5.85;;;14.90;99.90;;;;;;5072691;28;20500;-90
2021/08/05 05:40:25;;;;;;;9.95;5.28;;;15.00;99.90;;;;;;5073514;28;20059;-90
2021/08/05 05:42:53;;;;;;;5.40;5.00;;;14.90;99.90;;;;;;5072873;28;20052;-89
2021/08/05 05:45:21;;;;;;;4.80;4.45;;;15.00;99.90;;;;;;5072679;28;20465;-91
2021/08/05 05:47:49;;;;;;;5.35;4.95;;;15.00;99.90;;;;;;5073556;28;20060;-90
2021/08/05 05:50:17;;;;;;;6.05;5.45;;;15.10;99.90;;;;;;5078553;28;20049;-91
2021/08/05 05:52:45;;;;;;;6.93;5.38;;;15.00;99.90;;;;;;5078232;28;20076;-90
2021/08/05 05:55:12;;;;;;;7.10;5.13;;;15.10;99.90;;;;;;5072642;28;20048;-90
2021/08/05 05:57:39;;;;;;;9.18;5.82;;;15.10;99.90;;;;;;5072596;28;20416;-90
2021/08/05 06:00:07;;;;;;;5.47;4.95;;;15.00;99.90;;;;;;5072723;28;20049;-90
2021/08/05 06:02:34;;;;;;;5.38;4.88;;;15.00;99.90;;;;;;5073331;28;20143;-90
2021/08/05 06:05:01;;;;;;;5.68;4.95;;;15.10;99.90;;;;;;5076730;28;20052;-90
2021/08/05 06:07:28;;;;;;;5.32;4.43;;;15.20;99.90;;;;;;5077064;28;20076;-91
2021/08/05 06:09:54;;;;;;;9.15;4.93;;;15.30;99.90;;;;;;5076802;28;20133;-90
2021/08/05 06:12:21;;;;;;;9.98;4.40;;;15.30;99.90;;;;;;5076536;28;20056;-90
2021/08/05 06:14:51;;;;;;;4.85;4.40;;;15.40;99.90;;;;;;5076637;28;20515;-90
2021/08/05 06:17:18;;;;;;;5.43;4.68;;;15.40;99.90;;;;;;5076562;28;20048;-90
2021/08/05 06:19:45;;;;;;;5.65;5.15;;;15.50;99.90;;;;;;5076605;28;20416;-91
2021/08/05 06:22:11;;;;;;;9.77;4.93;;;15.50;99.90;;;;;;5076338;28;20430;-90
2021/08/05 06:24:38;;;;;;;15.93;6.15;;;15.60;99.90;;;;;;5076224;28;20560;-91
2021/08/05 06:27:05;;;;;;;12.20;5.85;;;15.60;99.90;;;;;;5076377;28;20108;-90
2021/08/05 06:29:32;;;;;;;17.65;6.53;;;15.60;99.90;;;;;;5076487;28;20048;-90
2021/08/05 06:31:59;;;;;;;12.50;5.47;;;15.60;99.90;;;;;;5076020;28;20135;-89
2021/08/05 06:34:26;;;;;;;6.60;4.57;;;15.70;99.90;;;;;;5076600;28;20132;-90
2021/08/05 06:36:53;;;;;;;4.28;3.88;;;15.70;99.90;;;;;;5077854;28;20415;-90
2021/08/05 06:39:19;;;;;;;4.15;3.92;;;15.80;99.90;;;;;;5078950;28;20499;-90
2021/08/05 06:41:47;;;;;;;4.10;3.80;;;15.80;99.90;;;;;;5075911;28;20420;-90
2021/08/05 06:44:14;;;;;;;3.95;3.67;;;15.80;99.90;;;;;;5075795;28;20044;-90
2021/08/05 06:46:41;;;;;;;4.03;3.72;;;15.90;99.90;;;;;;5075751;28;20523;-90
2021/08/05 06:49:08;;;;;;;6.25;5.70;;;15.90;99.90;;;;;;5075412;28;20066;-89
2021/08/05 06:51:35;;;;;;;5.18;4.78;;;16.00;99.90;;;;;;5075656;28;20056;-90
2021/08/05 06:54:01;;;;;;;4.80;4.38;;;16.10;99.90;;;;;;5075400;28;20557;-90
2021/08/05 06:56:28;;;;;;;7.10;6.40;;;16.20;99.90;;;;;;5075269;28;20056;-90
2021/08/05 06:58:55;;;;;;;5.88;5.10;;;16.30;99.90;;;;;;5075138;28;20044;-90
2021/08/05 07:01:22;;;;;;;5.43;5.03;;;16.30;99.90;;;;;;5076553;28;20132;-90
2021/08/05 07:03:49;;;;;;;14.00;11.27;;;16.40;99.90;;;;;;5076394;28;20135;-89
2021/08/05 07:06:16;;;;;;;15.23;13.32;;;16.50;99.90;;;;;;5075402;28;20148;-90
2021/08/05 07:08:43;;;;;;;15.68;11.30;;;16.50;99.90;;;;;;5075816;28;20178;-90
2021/08/05 07:11:10;;;;;;;9.10;6.78;;;16.50;99.90;;;;;;5083845;28;20116;-90
2021/08/05 07:13:36;;;;;;;6.13;5.53;;;16.50;99.90;;;;;;5078484;28;20067;-90
2021/08/05 07:16:03;;;;;;;5.50;5.05;;;16.50;99.90;;;;;;5073921;28;20055;-90
2021/08/05 07:18:30;;;;;;;3.97;3.67;;;16.60;99.90;;;;;;5073764;28;20131;-90
2021/08/05 07:20:58;;;;;;;4.15;3.83;;;16.70;99.90;;;;;;5074255;28;20511;-90
2021/08/05 07:23:27;;;;;;;4.30;4.05;;;16.70;99.90;;;;;;5074741;28;20055;-90
2021/08/05 07:25:54;;;;;;;6.75;3.85;;;16.70;99.90;;;;;;5074345;28;20044;-89
2021/08/05 07:28:21;;;;;;;4.63;4.32;;;16.80;99.90;;;;;;5075633;28;20044;-90
2021/08/05 07:30:48;;;;;;;4.00;3.70;;;16.80;99.90;;;;;;5074313;28;20116;-90
2021/08/05 07:33:14;;;;;;;3.90;3.70;;;16.80;99.90;;;;;;5074142;28;20461;-90
2021/08/05 07:35:41;;;;;;;5.95;3.80;;;16.90;99.90;;;;;;5074285;28;20058;-91
2021/08/05 07:38:08;;;;;;;4.28;3.90;;;16.90;99.90;;;;;;5074165;28;20048;-91
2021/08/05 07:40:35;;;;;;;5.68;4.40;;;16.90;99.90;;;;;;5074723;28;20044;-92
2021/08/05 07:43:02;;;;;;;4.18;3.88;;;16.90;99.90;;;;;;5074363;28;20059;-92
2021/08/05 07:45:28;;;;;;;4.05;3.78;;;17.00;99.90;;;;;;5074230;28;20501;-92
2021/08/05 07:47:55;;;;;;;4.13;3.35;;;17.00;99.90;;;;;;5074532;28;20125;-93
2021/08/05 07:50:22;;;;;;;4.25;3.95;;;17.00;99.90;;;;;;5074444;28;20052;-93
2021/08/05 07:52:48;;;;;;;5.35;4.10;;;17.10;99.90;;;;;;5074107;28;20049;-93
2021/08/05 07:55:16;;;;;;;4.15;3.85;;;17.10;99.90;;;;;;5073973;28;20056;-92
2021/08/05 07:57:43;;;;;;;4.45;4.10;;;17.20;99.90;;;;;;5074192;28;20139;-93
2021/08/05 08:00:10;;;;;;;4.60;4.20;;;17.20;99.90;;;;;;5073843;28;20095;-93
2021/08/05 08:02:37;;;;;;;5.30;4.90;;;17.10;99.90;;;;;;5074120;28;20052;-93
2021/08/05 08:05:05;;;;;;;4.93;4.60;;;17.10;99.90;;;;;;5073886;28;20040;-94
2021/08/05 08:07:36;;;;;;;5.03;4.55;;;17.10;99.90;;;;;;5073446;28;20056;-94
2021/08/05 08:10:04;;;;;;;5.85;4.13;;;17.10;99.90;;;;;;5073808;28;20044;-93
2021/08/05 08:12:31;;;;;;;9.25;4.72;;;17.20;99.90;;;;;;5073906;28;20070;-93
2021/08/05 08:14:58;;;;;;;4.85;4.45;;;17.20;99.90;;;;;;5074722;28;20070;-93
2021/08/05 08:17:25;;;;;;;5.80;5.30;;;17.20;99.90;;;;;;5074036;28;20195;-93
2021/08/05 08:19:52;;;;;;;5.68;4.68;;;17.20;99.90;;;;;;5073693;28;20136;-94
2021/08/05 08:22:23;;;;;;;4.85;4.45;;;17.10;99.90;;;;;;5074136;28;20044;-93
2021/08/05 08:24:50;;;;;;;9.90;4.90;;;17.00;99.90;;;;;;5074278;28;20066;-94
2021/08/05 08:27:17;;;;;;;6.85;4.72;;;17.10;99.90;;;;;;5073814;28;20071;-93
2021/08/05 08:29:43;;;;;;;5.97;4.38;;;17.30;99.90;;;;;;5077652;28;20059;-93
2021/08/05 08:32:10;;;;;;;6.82;4.82;;;17.30;99.90;;;;;;5096796;28;20044;-92
2021/08/05 08:34:37;;;;;;;13.25;5.00;;;17.30;99.90;;;;;;5084156;28;20565;-93
2021/08/05 08:37:03;;;;;;;5.65;4.97;;;17.40;99.90;;;;;;5073840;28;20055;-92
2021/08/05 08:39:30;;;;;;;12.70;5.75;;;17.40;99.90;;;;;;5073847;28;20053;-92
2021/08/05 08:41:57;;;;;;;8.10;5.72;;;17.70;99.90;;;;;;5073932;28;20151;-91
2021/08/05 08:44:24;;;;;;;5.43;4.88;;;17.90;99.90;;;;;;5073645;28;20048;-93
2021/08/05 08:46:52;;;;;;;9.32;4.70;;;18.00;99.90;;;;;;5074342;28;20139;-92
2021/08/05 08:49:26;;;;;;;8.02;4.55;;;17.90;99.90;;;;;;5073200;28;20101;-92
2021/08/05 08:51:55;;;;;;;7.80;4.55;;;18.10;99.90;;;;;;5069060;28;20489;-91
2021/08/05 08:54:23;;;;;;;8.30;4.85;;;18.20;99.90;;;;;;5072576;28;20416;-92
2021/08/05 08:56:53;;;;;;;6.25;4.00;;;18.30;99.90;;;;;;5073550;28;20059;-92
2021/08/05 08:59:21;;;;;;;6.72;4.53;;;18.40;99.90;;;;;;5075176;28;20144;-93
2021/08/05 09:01:47;;;;;;;8.63;4.47;;;18.60;99.90;;;;;;5076446;28;20063;-92
2021/08/05 09:04:15;;;;;;;8.25;4.18;;;18.90;99.90;;;;;;5073078;28;20155;-92
2021/08/05 09:06:44;;;;;;;8.73;4.32;;;19.10;99.90;;;;;;5072693;28;20048;-92
2021/08/05 09:09:11;;;;;;;4.15;3.75;;;19.40;99.90;;;;;;5072485;28;20054;-93
2021/08/05 09:11:38;;;;;;;7.32;4.07;;;19.60;99.90;;;;;;5072841;28;20063;-92
2021/08/05 09:14:04;;;;;;;4.03;3.63;;;19.60;99.90;;;;;;5073716;28;20040;-92
2021/08/05 09:16:32;;;;;;;6.13;3.33;;;19.50;99.90;;;;;;5074038;28;20044;-91
2021/08/05 09:19:19;;;;;;;5.50;3.35;;;19.70;99.90;;;;;;5072814;28;20071;-92
2021/08/05 09:21:56;;;;;;;3.35;3.13;;;20.00;99.90;;;;;;5074061;28;20052;-91
2021/08/05 09:24:28;;;;;;;2.75;2.55;;;20.20;99.90;;;;;;5073007;28;20066;-91
2021/08/05 09:27:02;;;;;;;5.88;3.15;;;20.50;99.90;;;;;;5072741;28;20147;-91
2021/08/05 09:29:30;;;;;;;5.15;3.15;;;20.50;99.90;;;;;;5074106;28;20550;-92
2021/08/05 09:32:00;;;;;;;3.08;2.78;;;20.50;99.90;;;;;;5072446;28;20508;-90
2021/08/05 09:34:35;;;;;;;3.28;2.70;;;20.40;99.90;;;;;;5072735;28;20074;-90
2021/08/05 09:37:08;;;;;;;3.90;2.83;;;20.50;99.90;;;;;;5072086;28;20055;-88
2021/08/05 09:39:37;;;;;;;3.55;3.25;;;20.40;99.90;;;;;;5072279;28;20093;-91
2021/08/05 09:42:08;;;;;;;3.03;2.80;;;20.70;99.90;;;;;;5072583;28;20055;-90
2021/08/05 09:44:37;;;;;;;2.80;2.60;;;20.80;99.90;;;;;;5072840;28;20067;-90
2021/08/05 09:47:15;;;;;;;3.83;3.22;;;21.10;99.90;;;;;;5073893;28;20048;-92
2021/08/05 09:49:49;;;;;;;4.28;2.72;;;21.40;99.90;;;;;;5075040;28;20051;-89
2021/08/05 09:52:31;;;;;;;2.53;2.40;;;21.90;99.90;;;;;;5079499;28;20189;-89
2021/08/05 09:55:04;;;;;;;2.47;2.30;;;22.40;99.90;;;;;;5072831;28;20115;-88
2021/08/05 09:57:33;;;;;;;6.80;2.53;;;22.90;99.90;;;;;;5072055;28;20082;-88
2021/08/05 10:00:02;;;;;;;1.55;1.55;;;23.50;99.90;;;;;;5071602;28;20063;-90
2021/08/05 10:02:40;;;;;;;3.55;2.20;;;23.70;99.90;;;;;;5071928;28;20511;-88
2021/08/05 10:05:13;;;;;;;2.95;2.10;;;24.10;99.90;;;;;;5072014;28;20048;-88
2021/08/05 10:07:53;;;;;;;7.60;2.67;;;24.20;99.90;;;;;;5073186;28;20048;-90
2021/08/05 10:10:24;;;;;;;3.38;2.58;;;24.20;99.90;;;;;;5072322;28;20596;-90
2021/08/05 10:12:57;;;;;;;2.35;1.80;;;24.30;99.90;;;;;;5071756;28;20075;-87
2021/08/05 10:15:24;;;;;;;2.13;1.48;;;24.10;99.90;;;;;;5071924;28;20053;-89
2021/08/05 10:17:53;;;;;;;24.45;20.30;;;24.20;99.90;;;;;;5072225;28;20063;-90
2021/08/05 10:20:21;;;;;;;4.72;2.92;;;24.00;99.90;;;;;;5071780;28;20159;-89
2021/08/05 10:22:49;;;;;;;6.78;3.17;;;24.30;99.90;;;;;;5071964;28;20067;-89
2021/08/05 10:25:24;;;;;;;7.32;4.95;;;24.60;99.90;;;;;;5071793;28;20135;-89
2021/08/05 10:27:53;;;;;;;4.05;1.90;;;24.60;99.90;;;;;;5071839;28;20053;-88
2021/08/05 10:30:20;;;;;;;5.38;1.80;;;25.00;99.90;;;;;;5071898;28;20226;-88
2021/08/05 10:32:48;;;;;;;8.00;2.00;;;25.40;99.90;;;;;;5071639;28;20079;-89
2021/08/05 10:35:16;;;;;;;2.47;1.40;;;25.70;99.90;;;;;;5072253;28;20127;-90
2021/08/05 10:37:43;;;;;;;3.03;1.52;;;25.70;99.90;;;;;;5072103;28;20045;-89
2021/08/05 10:40:14;;;;;;;2.22;1.55;;;25.70;99.90;;;;;;5071949;28;20060;-89
2021/08/05 10:42:43;;;;;;;2.10;1.50;;;25.60;99.90;;;;;;5072263;28;20147;-89
2021/08/05 10:45:11;;;;;;;8.20;2.35;;;26.00;99.90;;;;;;5071953;28;20045;-89
2021/08/05 10:47:39;;;;;;;3.92;2.00;;;26.40;99.90;;;;;;5072064;28;20060;-88
2021/08/05 10:50:13;;;;;;;6.65;2.60;;;25.90;99.90;;;;;;5075257;28;20118;-89
2021/08/05 10:52:41;;;;;;;;;;;25.50;99.90;;;;;;5071581;28;20049;-89
2021/08/05 10:55:15;;;;;;;4.65;2.58;;;25.30;99.90;;;;;;5075464;28;19927;-89
2021/08/05 10:57:46;;;;;;;4.90;2.00;;;25.50;99.90;;;;;;5075550;28;20104;-89
2021/08/05 11:00:15;;;;;;;1.63;1.52;;;26.10;99.90;;;;;;5076473;28;20049;-88
2021/08/05 11:02:53;;;;;;;4.68;1.55;;;26.50;99.90;;;;;;5075103;28;20499;-88
2021/08/05 11:05:21;;;;;;;2.33;1.42;;;26.20;99.90;;;;;;5075277;28;20084;-90
2021/08/05 11:08:14;;;;;;;1.80;1.17;;;26.10;99.90;;;;;;5075794;28;20086;-89
2021/08/05 11:10:41;;;;;;;4.43;1.80;;;25.80;99.80;;;;;;5089175;28;20100;-90
2021/08/05 11:13:08;;;;;;;2.40;1.50;;;25.80;99.90;;;;;;5078980;28;20062;-90
2021/08/05 11:15:35;;;;;;;1.83;1.70;;;26.20;99.90;;;;;;5074994;28;20064;-89
2021/08/05 11:18:15;;;;;;;1.45;1.35;;;26.60;99.90;;;;;;5074944;28;20059;-89
2021/08/05 11:20:51;;;;;;;1.25;1.20;;;27.60;98.10;;;;;;5076411;28;20083;-88
2021/08/05 11:23:34;;;;;;;1.40;1.30;;;27.50;95.50;;;;;;5077945;28;20044;-89
2021/08/05 11:26:03;;;;;;;;;;;27.70;95.60;;;;;;5079460;28;20083;-89
2021/08/05 11:28:44;;;;;;;2.50;1.10;;;27.50;94.40;;;;;;5075539;28;19931;-88
2021/08/05 11:31:24;;;;;;;0.98;0.90;;;27.80;92.70;;;;;;5075082;28;20080;-91
2021/08/05 11:34:12;;;;;;;1.05;1.00;;;28.60;92.50;;;;;;5074781;28;20122;-90
2021/08/05 11:36:46;;;;;;;1.60;1.20;;;29.60;87.50;;;;;;5074692;28;20404;-88
2021/08/05 11:39:15;;;;;;;2.72;1.10;;;29.00;86.10;;;;;;5074726;28;20052;-90
2021/08/05 11:41:48;;;;;;;1.17;1.10;;;28.70;86.10;;;;;;5074427;28;20481;-92
2021/08/05 11:44:38;;;;;;;2.10;1.45;;;28.40;84.00;;;;;;5075696;28;20091;-89
2021/08/05 11:47:05;;;;;;;1.58;1.35;;;27.40;85.10;;;;;;5074543;28;20062;-88
2021/08/05 11:49:39;;;;;;;1.52;1.30;;;27.50;90.00;;;;;;5074187;28;20139;-91
2021/08/05 11:52:12;;;;;;;3.28;1.35;;;27.60;89.60;;;;;;5074078;28;20053;-92
2021/08/05 11:54:45;;;;;;;1.33;1.30;;;27.60;89.90;;;;;;5074166;28;20048;-88
2021/08/05 11:57:14;;;;;;;2.00;1.40;;;27.50;90.20;;;;;;5068906;28;20106;-89
2021/08/05 11:59:46;;;;;;;1.00;1.00;;;26.90;88.90;;;;;;5073622;28;20060;-88
2021/08/05 12:02:25;;;;;;;1.40;1.30;;;26.70;90.80;;;;;;5074711;28;20053;-90
2021/08/05 12:04:54;;;;;;;1.45;1.25;;;26.30;91.80;;;;;;5073331;28;20044;-88
2021/08/05 12:07:32;;;;;;;2.33;1.20;;;26.50;92.20;;;;;;5073642;28;20054;-88
2021/08/05 12:10:08;;;;;;;1.73;1.40;;;26.70;92.10;;;;;;5073676;28;20527;-88
2021/08/05 12:12:43;;;;;;;1.33;1.23;;;26.90;91.40;;;;;;5072860;28;20045;-88
2021/08/05 12:15:15;;;;;;;1.45;1.05;;;26.70;90.80;;;;;;5073821;28;20412;-88
2021/08/05 12:17:50;;;;;;;1.33;1.10;;;26.70;92.10;;;;;;5073869;28;20052;-89
2021/08/05 12:20:26;;;;;;;1.70;1.60;;;27.00;92.50;;;;;;5073705;28;20075;-89
2021/08/05 12:22:55;;;;;;;1.40;1.30;;;26.80;90.90;;;;;;5073708;28;20131;-88
2021/08/05 12:25:24;;;;;;;1.42;1.30;;;26.40;91.80;;;;;;5073954;28;20055;-88
2021/08/05 12:28:00;;;;;;;1.40;1.30;;;26.00;92.60;;;;;;5073463;28;20041;-88
2021/08/05 12:30:52;;;;;;;1.40;1.30;;;26.00;91.90;;;;;;5078264;28;20529;-88
2021/08/05 12:33:25;;;;;;;1.13;1.13;;;25.80;93.50;;;;;;5075658;28;20055;-88
2021/08/05 12:36:01;;;;;;;6.73;1.20;;;25.40;94.60;;;;;;5074164;28;20144;-88
2021/08/05 12:38:28;;;;;;;1.10;1.10;;;24.30;94.80;;;;;;5073311;28;20052;-87
2021/08/05 12:40:56;;;;;;;1.50;1.05;;;23.80;97.50;;;;;;5073410;28;20144;-88
2021/08/05 12:43:27;;;;;;;1.20;0.80;;;23.50;99.90;;;;;;5073284;28;20070;-88
2021/08/05 12:45:54;;;;;;;1.17;0.70;;;23.30;99.90;;;;;;5073242;28;20051;-87
2021/08/05 12:48:22;;;;;;;0.82;0.80;;;23.20;99.90;;;;;;5073274;28;20049;-87
2021/08/05 12:50:50;;;;;;;5.68;0.73;;;23.40;99.90;;;;;;5073102;28;20452;-86
2021/08/05 12:53:31;;;;;;;1.27;0.50;;;23.60;99.40;;;;;;5073713;28;20058;-88
2021/08/05 12:56:00;;;;;;;1.05;0.60;;;23.60;98.50;;;;;;5072715;28;20044;-87